Time;durP1;ratioP1;P1;durP2;ratioP2;P2;SDS_P1;SDS_P2;PMS_P1;PMS_P2;Temp;Humidity;BMP_temperature;BMP_pressure;BME280_temperature;BME280_humidity;BME280_pressure;Samples;Min_cycle;Max_cycle;Signal;HPM_P1;HPM_P2
2022/08/30 00:02:35;;;;;;;13.73;6.95;;;;;;;14.41;100.00;102045.59;4964480;28;20043;-73
2022/08/30 00:05:01;;;;;;;16.15;8.68;;;;;;;14.38;100.00;102049.31;4964159;28;20549;-73
2022/08/30 00:07:27;;;;;;;12.57;7.57;;;;;;;14.39;100.00;102050.19;4963774;28;20513;-72
2022/08/30 00:09:52;;;;;;;10.68;7.93;;;;;;;14.35;100.00;102051.31;4963659;28;20038;-73
2022/08/30 00:12:19;;;;;;;10.95;7.38;;;;;;;14.38;100.00;102046.63;4963877;28;20062;-72
2022/08/30 00:14:46;;;;;;;14.30;8.15;;;;;;;14.38;100.00;102040.41;4963975;28;20046;-72
2022/08/30 00:17:12;;;;;;;13.68;8.40;;;;;;;14.37;100.00;102044.91;4963595;28;20131;-72
2022/08/30 00:19:37;;;;;;;16.30;9.13;;;;;;;14.38;100.00;102046.63;4963850;28;20058;-73
2022/08/30 00:22:04;;;;;;;16.90;8.18;;;;;;;14.33;100.00;102043.38;4949094;28;20097;-74
2022/08/30 00:24:29;;;;;;;14.80;8.10;;;;;;;14.30;100.00;102040.00;4963008;28;20042;-73
2022/08/30 00:26:55;;;;;;;10.48;8.02;;;;;;;14.35;100.00;102043.25;4963161;28;20051;-73
2022/08/30 00:29:21;;;;;;;12.65;8.60;;;;;;;14.20;100.00;102042.34;4961621;28;20054;-73
2022/08/30 00:31:47;;;;;;;16.48;9.43;;;;;;;14.20;100.00;102037.84;4963310;28;20185;-74
2022/08/30 00:34:13;;;;;;;21.80;9.15;;;;;;;14.11;100.00;102041.09;4963061;28;20121;-72
2022/08/30 00:36:38;;;;;;;12.27;8.70;;;;;;;14.16;100.00;102048.88;4963443;28;20035;-73
2022/08/30 00:39:05;;;;;;;15.77;8.23;;;;;;;14.05;100.00;102038.75;4963110;28;20050;-72
2022/08/30 00:41:30;;;;;;;12.65;9.40;;;;;;;14.05;100.00;102037.91;4962886;28;20099;-72
2022/08/30 00:43:56;;;;;;;14.82;8.48;;;;;;;14.12;100.00;102039.28;4962363;28;20045;-72
2022/08/30 00:46:21;;;;;;;15.05;9.30;;;;;;;14.09;100.00;102044.81;4962552;28;20105;-71
2022/08/30 00:48:49;;;;;;;13.90;9.55;;;;;;;14.17;100.00;102046.09;4961363;28;20046;-73
2022/08/30 00:51:16;;;;;;;21.40;10.13;;;;;;;14.06;100.00;102043.19;4960407;28;20050;-73
2022/08/30 00:53:49;;;;;;;16.30;9.07;;;;;;;14.03;100.00;102051.41;4961100;28;20077;-73
2022/08/30 00:56:17;;;;;;;19.95;10.27;;;;;;;14.03;100.00;102047.88;4962647;28;20058;-73
2022/08/30 00:58:47;;;;;;;17.05;9.63;;;;;;;14.01;100.00;102056.00;4960888;28;20490;-73
2022/08/30 01:01:13;;;;;;;15.80;9.88;;;;;;;14.01;100.00;102045.28;4962834;28;20129;-73
2022/08/30 01:03:40;;;;;;;18.17;9.77;;;;;;;13.92;100.00;102046.69;4945249;28;20058;-73
2022/08/30 01:06:06;;;;;;;14.68;10.05;;;;;;;13.96;100.00;102053.59;4962953;28;20161;-71
2022/08/30 01:08:32;;;;;;;13.77;9.63;;;;;;;13.99;100.00;102047.16;4961167;28;20057;-73
2022/08/30 01:10:59;;;;;;;19.02;10.40;;;;;;;13.98;100.00;102054.34;4962384;28;20122;-73
2022/08/30 01:13:27;;;;;;;18.67;9.95;;;;;;;13.96;100.00;102060.78;4961251;28;20080;-73
2022/08/30 01:15:53;;;;;;;13.80;9.38;;;;;;;13.89;100.00;102045.97;4962860;28;20584;-73
2022/08/30 01:18:20;;;;;;;15.45;9.65;;;;;;;13.80;100.00;102058.09;4963304;28;20077;-73
2022/08/30 01:21:09;;;;;;;20.88;10.10;;;;;;;13.78;100.00;102061.81;4960913;28;20057;-72
2022/08/30 01:23:39;;;;;;;16.20;9.98;;;;;;;13.72;100.00;102058.53;4960956;28;20042;-72
2022/08/30 01:26:05;;;;;;;19.45;10.55;;;;;;;13.63;100.00;102060.88;4962281;28;20403;-72
2022/08/30 01:28:31;;;;;;;20.65;10.70;;;;;;;13.73;100.00;102060.28;4960523;28;20124;-72
2022/08/30 01:30:57;;;;;;;17.70;10.55;;;;;;;13.73;100.00;102057.59;4962104;28;20053;-71
2022/08/30 01:33:23;;;;;;;14.23;10.48;;;;;;;13.57;100.00;102051.38;4962486;28;20042;-71
2022/08/30 01:35:52;;;;;;;17.33;10.52;;;;;;;13.59;100.00;102052.16;4960562;28;20570;-73
2022/08/30 01:38:21;;;;;;;23.77;11.43;;;;;;;13.60;100.00;102058.38;4961900;28;20486;-72
2022/08/30 01:40:47;;;;;;;21.77;11.63;;;;;;;13.62;100.00;102056.47;4962038;28;20125;-73
2022/08/30 01:43:14;;;;;;;20.95;12.00;;;;;;;13.66;100.00;102060.72;4961808;28;20050;-72
2022/08/30 01:45:40;;;;;;;19.60;11.10;;;;;;;13.71;100.00;102064.00;4960822;28;20502;-72
2022/08/30 01:48:05;;;;;;;19.52;11.00;;;;;;;13.71;100.00;102053.28;4944604;28;20555;-71
2022/08/30 01:50:31;;;;;;;17.70;11.13;;;;;;;13.73;100.00;102064.78;4961886;28;20130;-74
2022/08/30 01:52:56;;;;;;;23.10;11.65;;;;;;;13.78;100.00;102061.81;4961766;28;20039;-71
2022/08/30 01:55:22;;;;;;;16.77;11.40;;;;;;;13.60;100.00;102069.09;4961885;28;20126;-72
2022/08/30 01:57:48;;;;;;;20.27;11.23;;;;;;;13.64;100.00;102065.28;4962723;28;20459;-73
2022/08/30 02:00:15;;;;;;;23.85;12.20;;;;;;;13.68;100.00;102062.34;4961158;28;20051;-73
2022/08/30 02:02:40;;;;;;;19.35;11.15;;;;;;;13.62;100.00;102065.38;4960798;28;20046;-71
2022/08/30 02:05:06;;;;;;;19.58;11.45;;;;;;;13.70;100.00;102073.88;4962192;28;20863;-73
2022/08/30 02:07:32;;;;;;;22.38;12.52;;;;;;;13.66;100.00;102072.31;4962475;28;20482;-71
2022/08/30 02:09:57;;;;;;;20.00;11.32;;;;;;;13.50;100.00;102066.06;4962721;28;20054;-72
2022/08/30 02:12:23;;;;;;;19.13;11.65;;;;;;;13.35;100.00;102072.28;4962392;28;20046;-73
2022/08/30 02:14:49;;;;;;;19.85;12.00;;;;;;;13.33;100.00;102064.31;4961365;28;20094;-73
2022/08/30 02:17:14;;;;;;;19.50;12.73;;;;;;;13.25;100.00;102065.69;4962364;28;20075;-73
2022/08/30 02:19:40;;;;;;;24.08;12.90;;;;;;;13.32;100.00;102067.09;4962012;28;20046;-73
2022/08/30 02:22:06;;;;;;;24.67;13.60;;;;;;;13.31;100.00;102063.56;4962893;28;20043;-71
2022/08/30 02:24:32;;;;;;;22.08;12.82;;;;;;;13.34;100.00;102062.50;4960829;28;20089;-72
2022/08/30 02:26:57;;;;;;;19.42;12.48;;;;;;;13.37;100.00;102057.84;4962406;28;20050;-72
2022/08/30 02:29:24;;;;;;;16.52;11.63;;;;;;;13.44;100.00;102058.38;4960544;28;20043;-73
2022/08/30 02:31:50;;;;;;;18.15;12.48;;;;;;;13.49;100.00;102058.97;4961821;28;20074;-70
2022/08/30 02:34:16;;;;;;;17.77;11.85;;;;;;;13.53;100.00;102060.53;4961650;28;20035;-71
2022/08/30 02:36:42;;;;;;;18.65;12.50;;;;;;;13.51;100.00;102056.22;4961543;28;20043;-71
2022/08/30 02:39:10;;;;;;;20.73;12.48;;;;;;;13.47;100.00;102058.22;4960480;28;20043;-73
2022/08/30 02:41:37;;;;;;;22.98;14.75;;;;;;;13.46;100.00;102060.03;4948847;28;20047;-71
2022/08/30 02:44:03;;;;;;;21.88;12.85;;;;;;;13.29;100.00;102048.50;4960099;28;20042;-72
2022/08/30 02:46:29;;;;;;;24.02;13.75;;;;;;;13.32;100.00;102054.56;4960897;28;20119;-72
2022/08/30 02:48:54;;;;;;;21.75;13.80;;;;;;;13.30;100.00;102051.09;4962121;28;20503;-71
2022/08/30 02:51:20;;;;;;;23.27;14.10;;;;;;;13.26;100.00;102054.91;4961941;28;20039;-73
2022/08/30 02:53:45;;;;;;;24.58;14.38;;;;;;;13.27;100.00;102053.09;4962131;28;20045;-72
2022/08/30 02:56:12;;;;;;;21.17;13.00;;;;;;;13.13;100.00;102049.31;4961871;28;20050;-72
2022/08/30 02:58:41;;;;;;;25.85;14.57;;;;;;;13.16;100.00;102049.16;4960285;28;20146;-71
2022/08/30 03:01:07;;;;;;;23.65;15.07;;;;;;;13.09;100.00;102044.22;4955549;28;20058;-72
2022/08/30 03:03:33;;;;;;;25.88;14.90;;;;;;;13.03;100.00;102047.22;4959844;28;20043;-71
2022/08/30 03:05:58;;;;;;;23.70;14.40;;;;;;;13.05;100.00;102035.50;4959769;28;20062;-73
2022/08/30 03:08:24;;;;;;;29.35;14.73;;;;;;;12.99;100.00;102042.97;4959068;28;20078;-71
2022/08/30 03:10:49;;;;;;;30.55;14.23;;;;;;;12.96;100.00;102041.34;4960071;28;20039;-71
2022/08/30 03:13:15;;;;;;;27.83;15.50;;;;;;;12.94;100.00;102043.22;4958697;28;20042;-72
2022/08/30 03:15:41;;;;;;;34.60;15.63;;;;;;;12.88;100.00;102036.41;4961511;28;20428;-72
2022/08/30 03:18:09;;;;;;;27.88;16.40;;;;;;;12.87;100.00;102039.16;4962522;28;20046;-72
2022/08/30 03:20:34;;;;;;;27.50;16.00;;;;;;;12.80;100.00;102038.63;4962894;28;20043;-72
2022/08/30 03:23:01;;;;;;;34.85;16.80;;;;;;;12.79;100.00;102033.34;4962836;28;20062;-73
2022/08/30 03:25:26;;;;;;;28.15;15.82;;;;;;;12.84;100.00;102034.81;4963279;28;20487;-73
2022/08/30 03:27:52;;;;;;;30.85;17.27;;;;;;;12.84;100.00;102028.59;4963396;28;20129;-72
2022/08/30 03:30:19;;;;;;;31.05;18.17;;;;;;;12.87;100.00;102031.13;4961920;28;20042;-72
2022/08/30 03:32:44;;;;;;;31.45;16.90;;;;;;;12.84;100.00;102033.97;4964452;28;20047;-71
2022/08/30 03:35:11;;;;;;;31.33;16.77;;;;;;;12.90;100.00;102038.97;4962991;28;20057;-71
2022/08/30 03:37:36;;;;;;;35.10;16.27;;;;;;;12.86;100.00;102037.44;4962450;28;20114;-72
2022/08/30 03:40:04;;;;;;;30.50;16.85;;;;;;;12.81;100.00;102043.03;4964394;28;20778;-71
2022/08/30 03:42:29;;;;;;;37.53;17.70;;;;;;;12.91;100.00;102043.41;4964147;28;20034;-72
2022/08/30 03:44:55;;;;;;;31.20;17.40;;;;;;;12.82;100.00;102038.53;4963939;28;20377;-72
2022/08/30 03:47:20;;;;;;;26.77;15.55;;;;;;;12.81;100.00;102032.34;4963045;28;20042;-72
2022/08/30 03:49:46;;;;;;;33.22;17.30;;;;;;;12.87;100.00;102036.47;4961104;28;20640;-71
2022/08/30 03:52:11;;;;;;;30.30;18.38;;;;;;;12.92;100.00;102031.75;4961496;28;20945;-72
2022/08/30 03:54:38;;;;;;;33.35;17.27;;;;;;;12.85;100.00;102038.34;4962142;28;20585;-71
2022/08/30 03:57:05;;;;;;;33.63;18.00;;;;;;;12.87;100.00;102034.66;4962105;28;20042;-72
2022/08/30 03:59:30;;;;;;;32.83;17.38;;;;;;;12.96;100.00;102049.38;4963738;28;20039;-71
2022/08/30 04:01:57;;;;;;;32.65;17.70;;;;;;;12.91;100.00;102036.25;4964579;28;20138;-72
2022/08/30 04:04:22;;;;;;;25.35;15.52;;;;;;;12.88;100.00;102047.09;4963994;28;20078;-72
2022/08/30 04:06:48;;;;;;;35.30;18.95;;;;;;;12.85;100.00;102038.34;4964350;28;20506;-71
2022/08/30 04:09:13;;;;;;;29.13;17.55;;;;;;;12.85;100.00;102041.03;4964256;28;20034;-72
2022/08/30 04:11:39;;;;;;;28.05;17.48;;;;;;;12.86;100.00;102049.00;4949078;28;20491;-71
2022/08/30 04:14:05;;;;;;;33.90;18.17;;;;;;;12.82;100.00;102050.13;4964294;28;20042;-72
2022/08/30 04:16:30;;;;;;;31.73;17.45;;;;;;;12.93;100.00;102050.41;4962922;28;20674;-72
2022/08/30 04:18:55;;;;;;;25.98;16.88;;;;;;;12.86;100.00;102057.03;4964079;28;20789;-72
2022/08/30 04:21:21;;;;;;;27.65;16.42;;;;;;;12.86;100.00;102059.72;4962015;28;20101;-72
2022/08/30 04:23:46;;;;;;;30.80;16.58;;;;;;;12.81;100.00;102058.25;4963305;28;20047;-73
2022/08/30 04:26:12;;;;;;;28.13;15.80;;;;;;;12.75;100.00;102062.09;4962676;28;20043;-70
2022/08/30 04:28:38;;;;;;;31.65;17.48;;;;;;;12.82;100.00;102062.63;4964108;28;20090;-72
2022/08/30 04:31:11;;;;;;;31.67;17.00;;;;;;;12.78;100.00;102055.72;4964014;28;20045;-72
2022/08/30 04:33:37;;;;;;;32.65;17.45;;;;;;;12.72;100.00;102054.22;4964479;28;20124;-73
2022/08/30 04:36:04;;;;;;;29.63;17.05;;;;;;;12.57;100.00;102053.22;4964024;28;20042;-73
2022/08/30 04:38:31;;;;;;;30.02;17.30;;;;;;;12.61;100.00;102052.13;4964212;28;20081;-73
2022/08/30 04:40:57;;;;;;;26.85;16.92;;;;;;;12.68;100.00;102055.31;4964115;28;20043;-73
2022/08/30 04:43:25;;;;;;;28.27;16.77;;;;;;;12.67;100.00;102057.16;4964460;28;20926;-73
2022/08/30 04:45:52;;;;;;;27.33;15.75;;;;;;;12.57;100.00;102063.06;4963918;28;20039;-73
2022/08/30 04:48:18;;;;;;;30.73;15.85;;;;;;;12.54;100.00;102057.84;4963905;28;20042;-73
2022/08/30 04:50:45;;;;;;;29.67;16.63;;;;;;;12.54;100.00;102057.84;4963493;28;20042;-72
2022/08/30 04:53:12;;;;;;;35.60;17.77;;;;;;;12.50;100.00;102067.88;4956045;28;20488;-72
2022/08/30 04:55:39;;;;;;;29.10;17.55;;;;;;;12.46;100.00;102068.13;4955876;28;20043;-73
2022/08/30 04:58:05;;;;;;;27.50;16.52;;;;;;;12.50;100.00;102070.56;4947426;28;20050;-73
2022/08/30 05:00:31;;;;;;;32.50;17.15;;;;;;;12.47;100.00;102072.50;4951731;28;20051;-71
2022/08/30 05:02:56;;;;;;;28.40;17.75;;;;;;;12.44;100.00;102070.84;4960224;28;20077;-72
2022/08/30 05:05:40;;;;;;;29.75;16.88;;;;;;;12.50;100.00;102066.97;4960966;28;20062;-72
2022/08/30 05:08:12;;;;;;;33.83;17.50;;;;;;;12.47;100.00;102077.88;4960735;28;20078;-72
2022/08/30 05:10:39;;;;;;;29.58;16.83;;;;;;;12.68;100.00;102080.28;4962169;28;20173;-71
2022/08/30 05:13:05;;;;;;;34.30;18.58;;;;;;;12.75;100.00;102078.16;4962184;28;20045;-72
2022/08/30 05:15:31;;;;;;;28.45;16.35;;;;;;;12.76;100.00;102087.91;4961937;28;20039;-70
2022/08/30 05:17:57;;;;;;;31.60;17.17;;;;;;;12.78;100.00;102090.50;4962343;28;20511;-71
2022/08/30 05:20:22;;;;;;;29.38;17.00;;;;;;;12.80;100.00;102086.81;4962205;28;20050;-70
2022/08/30 05:22:51;;;;;;;24.30;16.10;;;;;;;12.79;100.00;102086.88;4962285;28;20042;-72
2022/08/30 05:25:25;;;;;;;28.63;16.13;;;;;;;12.90;100.00;102085.38;4962129;28;20057;-72
2022/08/30 05:27:51;;;;;;;29.23;16.15;;;;;;;12.90;100.00;102076.47;4962116;28;20046;-71
2022/08/30 05:30:17;;;;;;;24.63;15.27;;;;;;;12.91;100.00;102079.06;4961148;28;20610;-70
2022/08/30 05:32:42;;;;;;;30.60;16.60;;;;;;;12.99;100.00;102084.00;4963172;28;20042;-70
2022/08/30 05:35:10;;;;;;;29.25;16.85;;;;;;;13.10;100.00;102087.00;4961079;28;20161;-72
2022/08/30 05:37:36;;;;;;;30.55;15.60;;;;;;;13.15;100.00;102084.03;4960737;28;20086;-72
2022/08/30 05:40:03;;;;;;;26.58;15.77;;;;;;;13.28;100.00;102087.81;4962564;28;20174;-71
2022/08/30 05:42:29;;;;;;;27.63;14.57;;;;;;;13.32;100.00;102089.41;4962399;28;20042;-71
2022/08/30 05:44:54;;;;;;;26.95;15.05;;;;;;;13.39;100.00;102090.78;4962570;28;20047;-72
2022/08/30 05:47:20;;;;;;;23.42;13.57;;;;;;;13.54;100.00;102085.50;4961006;28;20043;-71
2022/08/30 05:49:47;;;;;;;25.23;13.70;;;;;;;13.63;100.00;102087.69;4960924;28;20035;-71
2022/08/30 05:52:14;;;;;;;18.63;13.45;;;;;;;13.74;100.00;102095.97;4962407;28;20069;-71
2022/08/30 05:54:40;;;;;;;22.80;14.55;;;;;;;13.84;100.00;102097.19;4962609;28;20058;-71
2022/08/30 05:57:06;;;;;;;24.95;13.45;;;;;;;13.92;100.00;102108.34;4962626;28;20043;-72
2022/08/30 05:59:32;;;;;;;23.67;14.07;;;;;;;14.05;100.00;102103.13;4962465;28;20093;-71
2022/08/30 06:01:57;;;;;;;20.42;12.15;;;;;;;14.07;100.00;102100.38;4962365;28;20533;-75
2022/08/30 06:04:23;;;;;;;24.42;13.48;;;;;;;14.13;100.00;102100.88;4960281;28;20452;-72
2022/08/30 06:06:49;;;;;;;19.55;12.38;;;;;;;14.38;100.00;102102.13;4960427;28;20041;-71
2022/08/30 06:09:14;;;;;;;15.82;11.70;;;;;;;14.46;100.00;102100.72;4960473;28;20034;-71
2022/08/30 06:11:42;;;;;;;16.17;11.18;;;;;;;14.55;100.00;102102.00;4962024;28;20034;-71
2022/08/30 06:14:07;;;;;;;17.63;11.45;;;;;;;14.59;100.00;102106.25;4962171;28;20051;-70
2022/08/30 06:16:34;;;;;;;15.63;11.48;;;;;;;14.81;100.00;102096.88;4961962;28;20049;-71
2022/08/30 06:19:00;;;;;;;17.30;10.95;;;;;;;14.80;100.00;102095.16;4962239;28;20038;-71
2022/08/30 06:21:35;;;;;;;13.40;9.95;;;;;;;14.92;100.00;102089.91;4960866;28;20051;-71
2022/08/30 06:24:03;;;;;;;13.13;9.50;;;;;;;15.02;100.00;102096.44;4962291;28;20451;-71
2022/08/30 06:26:29;;;;;;;11.68;8.55;;;;;;;15.23;100.00;102096.91;4962049;28;20177;-71
2022/08/30 06:28:57;;;;;;;13.02;9.38;;;;;;;15.42;100.00;102096.63;4960371;28;20044;-70
2022/08/30 06:31:24;;;;;;;14.45;8.60;;;;;;;15.51;100.00;102098.72;4961757;28;20061;-71
2022/08/30 06:33:50;;;;;;;14.70;8.23;;;;;;;15.93;100.00;102104.16;4961964;28;20039;-73
2022/08/30 06:36:20;;;;;;;10.23;6.90;;;;;;;16.00;100.00;102108.16;4961819;28;20047;-72
2022/08/30 06:38:49;;;;;;;10.02;7.50;;;;;;;16.39;100.00;102103.75;4961861;28;20125;-71
2022/08/30 06:41:18;;;;;;;10.38;7.32;;;;;;;16.51;100.00;102101.09;4962058;28;20212;-72
2022/08/30 06:43:43;;;;;;;17.52;6.55;;;;;;;16.62;100.00;102113.84;4962019;28;20043;-71
2022/08/30 06:46:12;;;;;;;7.35;5.22;;;;;;;16.81;100.00;102100.84;4959752;28;20038;-72
2022/08/30 06:48:37;;;;;;;9.57;6.18;;;;;;;17.12;100.00;102095.13;4961012;28;20061;-72
2022/08/30 06:51:03;;;;;;;9.30;5.55;;;;;;;17.50;100.00;102095.06;4965388;28;20034;-71
2022/08/30 06:53:29;;;;;;;7.43;5.53;;;;;;;17.24;100.00;102092.44;4966013;28;20141;-71
2022/08/30 06:56:01;;;;;;;6.43;5.22;;;;;;;17.49;100.00;102101.44;4964575;28;20118;-70
2022/08/30 06:58:28;;;;;;;5.22;4.40;;;;;;;17.60;100.00;102099.69;4965794;28;20903;-72
2022/08/30 07:00:54;;;;;;;7.15;4.90;;;;;;;17.75;100.00;102107.66;4965404;28;20779;-72
2022/08/30 07:03:19;;;;;;;5.20;4.13;;;;;;;17.79;100.00;102104.63;4965254;28;20054;-73
2022/08/30 07:05:47;;;;;;;6.28;4.72;;;;;;;17.98;100.00;102103.28;4965267;28;20062;-71
2022/08/30 07:08:13;;;;;;;6.30;4.15;;;;;;;18.06;98.34;102103.56;4944347;28;20046;-73
2022/08/30 07:10:40;;;;;;;7.50;4.35;;;;;;;18.26;96.76;102100.22;4954703;28;20043;-72
2022/08/30 07:13:06;;;;;;;4.97;3.78;;;;;;;18.14;96.19;102094.91;4965044;28;20492;-70
2022/08/30 07:15:33;;;;;;;4.63;4.13;;;;;;;18.09;95.72;102097.94;4964112;28;20039;-73
2022/08/30 07:20:42;;;;;;;5.47;3.75;;;;;;;18.63;92.95;102097.41;4965137;28;20850;-70
2022/08/30 07:23:09;;;;;;;8.23;3.80;;;;;;;19.01;91.05;102091.72;4965076;28;20039;-71
2022/08/30 07:25:38;;;;;;;6.63;3.38;;;;;;;18.86;90.14;102101.91;4965365;28;20035;-73
2022/08/30 07:28:07;;;;;;;8.18;4.05;;;;;;;19.07;89.16;102093.09;4954521;28;20049;-71
2022/08/30 07:30:34;;;;;;;8.82;3.28;;;;;;;18.87;87.38;102106.31;4962598;28;20190;-71
2022/08/30 07:32:59;;;;;;;8.45;3.30;;;;;;;18.99;89.66;102096.41;4965051;28;20101;-71
2022/08/30 07:35:25;;;;;;;7.57;3.65;;;;;;;19.15;87.48;102098.75;4964384;28;20046;-71
2022/08/30 07:37:51;;;;;;;5.20;3.05;;;;;;;19.29;87.47;102105.78;4963778;28;20035;-71
2022/08/30 07:40:16;;;;;;;5.35;2.90;;;;;;;19.24;87.34;102105.28;4964282;28;20046;-71
2022/08/30 07:42:43;;;;;;;4.53;2.90;;;;;;;19.13;85.26;102109.69;4963805;28;20046;-72
2022/08/30 07:45:09;;;;;;;2.95;2.53;;;;;;;19.31;84.14;102106.50;4963386;28;20045;-71
2022/08/30 07:47:34;;;;;;;3.03;2.72;;;;;;;19.70;82.02;102107.84;4964828;28;20035;-71
2022/08/30 07:50:00;;;;;;;5.13;2.40;;;;;;;19.65;82.27;102108.22;4965386;28;20412;-70
2022/08/30 07:52:26;;;;;;;3.67;2.17;;;;;;;19.61;83.22;102106.75;4963905;28;20074;-71
2022/08/30 07:54:56;;;;;;;5.82;2.60;;;;;;;20.06;79.72;102103.94;4965273;28;20035;-70
2022/08/30 07:57:22;;;;;;;6.25;2.55;;;;;;;19.63;79.25;102117.47;4951694;28;20563;-72
2022/08/30 07:59:47;;;;;;;7.05;1.83;;;;;;;20.13;78.61;102113.31;4962800;28;20043;-70
2022/08/30 08:02:13;;;;;;;2.78;2.05;;;;;;;19.91;77.75;102106.09;4963918;28;20125;-72
2022/08/30 08:04:38;;;;;;;4.20;1.70;;;;;;;19.89;76.86;102113.50;4960668;28;20043;-71
2022/08/30 08:07:04;;;;;;;5.97;1.92;;;;;;;19.55;77.11;102111.78;4945670;28;20038;-73
2022/08/30 08:09:29;;;;;;;3.72;1.90;;;;;;;19.94;77.24;102109.53;4962912;28;20038;-72
2022/08/30 08:11:55;;;;;;;2.72;1.63;;;;;;;19.91;76.58;102111.50;4960179;28;20047;-72
2022/08/30 08:14:22;;;;;;;6.55;1.60;;;;;;;20.04;75.37;102116.78;4961763;28;20126;-72
2022/08/30 08:16:48;;;;;;;4.10;1.60;;;;;;;20.31;75.79;102110.03;4962070;28;20145;-72
2022/08/30 08:19:14;;;;;;;4.95;1.42;;;;;;;20.40;74.90;102115.53;4962270;28;20403;-71
2022/08/30 08:21:40;;;;;;;2.55;1.60;;;;;;;20.53;74.21;102103.66;4962922;28;20582;-74
2022/08/30 08:24:06;;;;;;;4.40;1.25;;;;;;;20.92;72.37;102089.38;4962739;28;20046;-73
2022/08/30 08:26:37;;;;;;;4.55;1.50;;;;;;;21.33;70.40;102093.03;4963549;28;20074;-72
2022/08/30 08:29:07;;;;;;;2.13;1.27;;;;;;;20.80;71.20;102106.72;4962212;28;20046;-71
2022/08/30 08:31:33;;;;;;;5.30;1.65;;;;;;;20.54;73.28;102108.13;4964121;28;20131;-72
2022/08/30 08:34:03;;;;;;;5.47;1.85;;;;;;;20.36;70.18;102110.50;4957451;28;20039;-71
2022/08/30 08:36:30;;;;;;;1.90;1.13;;;;;;;20.22;70.86;102106.22;4970818;28;20628;-72
2022/08/30 08:38:55;;;;;;;2.67;1.40;;;;;;;20.43;69.11;102115.28;4963411;28;20104;-72
2022/08/30 08:41:50;;;;;;;3.70;1.40;;;;;;;20.59;69.28;102095.88;4961270;28;20782;-73
2022/08/30 08:44:31;;;;;;;8.38;1.65;;;;;;;20.72;67.06;102100.22;4963278;28;20050;-70
2022/08/30 08:47:14;;;;;;;2.22;1.58;;;;;;;20.48;65.74;102116.75;4973637;28;20039;-72
2022/08/30 08:49:43;;;;;;;1.95;1.25;;;;;;;20.93;65.38;102106.50;4953020;28;20113;-72
2022/08/30 08:55:08;;;;;;;6.78;1.88;;;;;;;21.42;64.21;102108.50;4963010;28;20045;-73
2022/08/30 08:57:35;;;;;;;2.50;1.20;;;;;;;21.50;62.46;102109.69;4965095;28;20053;-71
2022/08/30 09:00:06;;;;;;;5.03;1.30;;;;;;;21.69;62.23;102104.31;4964700;28;20046;-72
2022/08/30 09:02:40;;;;;;;4.30;1.30;;;;;;;22.01;63.25;102103.22;4963428;28;20511;-73
2022/08/30 09:05:10;;;;;;;7.45;1.75;;;;;;;21.85;64.09;102109.22;4965329;28;20509;-74
2022/08/30 09:07:40;;;;;;;3.20;1.33;;;;;;;21.60;61.94;102108.72;4975525;28;20067;-73
2022/08/30 09:10:06;;;;;;;1.73;1.20;;;;;;;21.28;62.89;102111.53;4970359;28;20042;-73
2022/08/30 09:12:31;;;;;;;3.35;1.50;;;;;;;21.43;60.01;102115.63;4959953;28;20046;-72
2022/08/30 09:15:10;;;;;;;1.92;1.20;;;;;;;21.05;61.72;102110.00;4964999;28;20043;-73
2022/08/30 09:17:54;;;;;;;4.20;1.58;;;;;;;21.63;59.51;102104.84;4969766;28;20060;-73
2022/08/30 09:20:33;;;;;;;2.58;1.27;;;;;;;21.64;61.50;102109.31;4962629;28;20062;-73
2022/08/30 09:23:20;;;;;;;2.30;1.33;;;;;;;21.84;60.58;102113.78;4967720;28;20480;-72
2022/08/30 09:25:55;;;;;;;3.30;1.17;;;;;;;22.09;58.46;102104.25;4970062;28;20138;-73
2022/08/30 09:28:25;;;;;;;3.58;1.10;;;;;;;21.63;59.53;102110.28;4963092;28;20043;-72
2022/08/30 09:31:01;;;;;;;5.05;1.25;;;;;;;21.69;59.10;102110.59;4960901;28;20758;-73
2022/08/30 09:33:27;;;;;;;5.82;1.25;;;;;;;21.46;60.31;102103.66;4961776;28;20042;-72
2022/08/30 09:35:53;;;;;;;7.18;2.15;;;;;;;21.66;59.69;102102.72;4971128;28;20039;-76
2022/08/30 09:38:34;;;;;;;6.13;1.13;;;;;;;21.56;59.17;102103.69;4945194;28;20051;-75
2022/08/30 09:41:21;;;;;;;5.55;1.50;;;;;;;21.62;59.04;102097.69;4958512;28;20039;-73
2022/08/30 09:44:06;;;;;;;5.32;1.40;;;;;;;21.63;58.85;102111.13;4954586;28;20118;-71
2022/08/30 09:46:31;;;;;;;3.47;1.38;;;;;;;21.42;58.88;102107.63;4973388;28;20039;-73
2022/08/30 09:48:57;;;;;;;2.92;1.17;;;;;;;21.32;59.34;102112.16;4960051;28;20047;-72
2022/08/30 09:51:42;;;;;;;1.52;1.10;;;;;;;21.67;59.45;102107.16;4964248;28;20062;-72
2022/08/30 09:54:25;;;;;;;2.42;1.40;;;;;;;21.94;58.33;102100.22;4961477;28;20863;-72
2022/08/30 09:57:08;;;;;;;2.30;1.30;;;;;;;22.11;58.90;102113.13;4961977;28;20041;-73
2022/08/30 09:59:59;;;;;;;1.92;1.40;;;;;;;21.86;58.88;102106.34;4964805;28;21000;-73
2022/08/30 10:02:41;;;;;;;2.72;1.45;;;;;;;21.70;58.93;102109.59;4970219;28;20031;-73
2022/08/30 10:05:35;;;;;;;6.35;1.73;;;;;;;21.85;59.09;102098.34;4960132;28;20062;-72
2022/08/30 10:08:27;;;;;;;2.17;1.30;;;;;;;21.81;60.09;102099.63;4961850;28;20035;-73
2022/08/30 10:11:00;;;;;;;4.63;1.20;;;;;;;22.19;59.26;102098.84;4959704;28;20034;-71
2022/08/30 10:13:36;;;;;;;3.40;1.40;;;;;;;22.68;59.30;102105.09;4960786;28;20073;-72
2022/08/30 10:16:11;;;;;;;4.20;1.27;;;;;;;22.29;57.10;102099.72;4962144;28;20039;-73
2022/08/30 10:18:50;;;;;;;6.78;2.50;;;;;;;22.32;57.28;102102.13;4960788;28;20042;-76
2022/08/30 10:21:26;;;;;;;3.42;1.45;;;;;;;22.16;56.41;102097.25;4963011;28;20703;-72
2022/08/30 10:23:59;;;;;;;6.13;1.88;;;;;;;22.25;56.30;102097.41;4960735;28;20058;-72
2022/08/30 10:26:41;;;;;;;7.32;1.58;;;;;;;22.65;56.28;102092.66;4971725;28;20148;-72
2022/08/30 10:29:45;;;;;;;4.10;1.50;;;;;;;22.70;57.27;102095.81;4965310;28;20058;-73
2022/08/30 10:32:36;;;;;;;3.72;1.75;;;;;;;22.85;55.07;102098.06;4889203;29;20051;-72
2022/08/30 10:35:08;;;;;;;3.23;1.47;;;;;;;22.73;55.93;102092.78;4902403;29;20047;-72
2022/08/30 10:37:56;;;;;;;2.07;1.37;;;;;;;22.63;53.69;102086.50;4910506;29;21129;-73
2022/08/30 10:43:51;;;;;;;5.10;1.63;;;;;;;23.21;53.75;102085.53;4878380;29;20599;-73
2022/08/30 10:46:33;;;;;;;3.95;1.52;;;;;;;22.74;55.00;102086.38;4897075;29;20083;-73
2022/08/30 10:49:00;;;;;;;;;;;;;;;22.89;56.38;102077.75;4886325;29;20057;-71
2022/08/30 10:51:40;;;;;;;7.90;1.83;;;;;;;22.82;54.24;102076.59;4903498;29;19962;-73
2022/08/30 10:54:16;;;;;;;4.47;1.85;;;;;;;22.85;54.90;102096.22;4897707;29;20082;-73
2022/08/30 10:56:44;;;;;;;4.40;2.00;;;;;;;22.82;53.37;102082.88;4899559;29;20040;-72
2022/08/30 10:59:10;;;;;;;1.70;1.38;;;;;;;23.35;53.44;102089.63;4872045;29;20096;-72
2022/08/30 11:01:51;;;;;;;3.63;1.50;;;;;;;23.35;54.39;102084.19;4883968;29;20048;-70
2022/08/30 11:04:22;;;;;;;4.80;1.63;;;;;;;23.10;55.20;102085.72;4960155;28;20129;-71
2022/08/30 11:07:16;;;;;;;2.30;1.23;;;;;;;23.00;54.32;102069.44;4958986;28;20061;-73
2022/08/30 11:10:03;;;;;;;2.97;1.30;;;;;;;23.33;53.99;102075.28;4960629;28;20042;-72
2022/08/30 11:12:35;;;;;;;6.88;1.73;;;;;;;23.03;53.60;102074.56;4951398;28;20121;-72
2022/08/30 11:15:14;;;;;;;4.93;1.45;;;;;;;23.45;53.44;102087.72;4961783;28;20047;-72
2022/08/30 11:17:51;;;;;;;3.60;1.60;;;;;;;22.86;53.43;102070.72;4960570;28;20039;-72
2022/08/30 11:20:34;;;;;;;1.67;1.30;;;;;;;23.15;51.89;102083.41;4963862;28;20138;-73
2022/08/30 11:23:17;;;;;;;3.53;1.45;;;;;;;23.05;52.81;102075.28;4964697;28;20070;-72
2022/08/30 11:25:56;;;;;;;2.38;1.40;;;;;;;23.23;52.62;102078.06;4960336;28;20125;-72
2022/08/30 11:28:34;;;;;;;2.75;1.42;;;;;;;22.93;52.89;102080.03;4959157;28;20042;-71
2022/08/30 11:31:30;;;;;;;8.02;1.35;;;;;;;23.12;53.66;102072.81;4945844;28;20874;-71